Time;durP1;ratioP1;P1;durP2;ratioP2;P2;SDS_P1;SDS_P2;PMS_P1;PMS_P2;Temp;Humidity;BMP_temperature;BMP_pressure;BME280_temperature;BME280_humidity;BME280_pressure;Samples;Min_cycle;Max_cycle;Signal;HPM_P1;HPM_P2
2024/04/12 00:00:50;;;;;;;13.4;8.1;;;;;;;7.82;86.19;100230;;;;
2024/04/12 00:10:51;;;;;;;13.4;8.1;;;;;;;7.73;85.38;100221.66666667;;;;
2024/04/12 00:20:51;;;;;;;13.4;8.1;;;;;;;7.7;85.4;100210;;;;
2024/04/12 00:31:52;;;;;;;13.4;7.1;;;;;;;7.54;85.16;100200;;;;
2024/04/12 00:42:51;;;;;;;13.4;7.1;;;;;;;7.33;84.77;100193.33333333;;;;
2024/04/12 00:53:51;;;;;;;13.4;7.1;;;;;;;7.12;84.49;100188.33333333;;;;
2024/04/12 01:04:50;;;;;;;12.1;7.2;;;;;;;6.92;84.45;100190;;;;
2024/04/12 01:14:50;;;;;;;12.1;7.2;;;;;;;6.75;84.52;100201.66666667;;;;
2024/04/12 01:25:51;;;;;;;12.5;7;;;;;;;6.59;84.73;100205;;;;
2024/04/12 01:35:50;;;;;;;12.5;7;;;;;;;6.47;85.1;100206.66666667;;;;
2024/04/12 01:45:54;;;;;;;12.5;7;;;;;;;6.42;85.58;100215;;;;
2024/04/12 01:55:50;;;;;;;12.3;6.2;;;;;;;6.29;86.17;100216.66666667;;;;
2024/04/12 02:05:50;;;;;;;12.3;6.2;;;;;;;6.28;86.5;100211.66666667;;;;
2024/04/12 02:16:50;;;;;;;12.3;6.2;;;;;;;6.29;86.87;100213.33333333;;;;
2024/04/12 02:26:50;;;;;;;11.7;6.7;;;;;;;6.31;86.98;100210;;;;
2024/04/12 02:37:51;;;;;;;11.7;6.7;;;;;;;6.38;87.01;100203.33333333;;;;
2024/04/12 02:47:50;;;;;;;11.7;6.7;;;;;;;6.46;87.33;100210;;;;
2024/04/12 02:57:51;;;;;;;12.2;7.2;;;;;;;6.66;87.69;100201.66666667;;;;
2024/04/12 03:08:51;;;;;;;12.2;7.2;;;;;;;6.83;87.7;100218.33333333;;;;
2024/04/12 03:19:50;;;;;;;12.2;7.2;;;;;;;6.79;87.14;100216.66666667;;;;
2024/04/12 03:29:50;;;;;;;12.3;7.4;;;;;;;6.79;87.1;100223.33333333;;;;
2024/04/12 03:40:52;;;;;;;12.3;7.4;;;;;;;6.73;87;100228.33333333;;;;
2024/04/12 03:50:50;;;;;;;12.3;7.4;;;;;;;6.79;87.57;100231.66666667;;;;
2024/04/12 04:01:50;;;;;;;11.4;6.5;;;;;;;6.85;87.91;100221.66666667;;;;
2024/04/12 04:12:50;;;;;;;11.4;6.5;;;;;;;6.82;87.22;100231.66666667;;;;
2024/04/12 04:22:50;;;;;;;11.4;6.5;;;;;;;6.91;87.2;100236.66666667;;;;
2024/04/12 04:33:50;;;;;;;12.3;6.3;;;;;;;6.98;86.83;100248.33333333;;;;
2024/04/12 04:43:51;;;;;;;12.3;6.3;;;;;;;7.05;86.83;100255;;;;
2024/04/12 04:54:50;;;;;;;10.9;6.3;;;;;;;7.39;87.19;100260;;;;
2024/04/12 05:04:50;;;;;;;10.9;6.3;;;;;;;7.85;87.41;100261.66666667;;;;
2024/04/12 05:14:54;;;;;;;10.9;6.3;;;;;;;8.29;87.3;100268.33333333;;;;
2024/04/12 05:25:50;;;;;;;12.2;7.4;;;;;;;8.85;86.4;100268.33333333;;;;
2024/04/12 05:35:50;;;;;;;12.2;7.4;;;;;;;9.2;84.32;100271.66666667;;;;
2024/04/12 05:45:50;;;;;;;12.2;7.4;;;;;;;9.6;82.97;100265;;;;
2024/04/12 05:55:52;;;;;;;12.4;7.4;;;;;;;10.17;82.13;100260;;;;
2024/04/12 06:06:50;;;;;;;12.4;7.4;;;;;;;10.67;80.54;100258.33333333;;;;
2024/04/12 06:17:50;;;;;;;12.4;7.4;;;;;;;11.27;78.36;100250;;;;
2024/04/12 06:28:51;;;;;;;13;7.2;;;;;;;11.86;77.12;100243.33333333;;;;
2024/04/12 06:39:55;;;;;;;13;7.2;;;;;;;12.4;74.74;100235;;;;
2024/04/12 06:50:50;;;;;;;13;7.2;;;;;;;12.81;72.61;100240;;;;
2024/04/12 07:01:50;;;;;;;11.1;6.5;;;;;;;12.95;71.96;100230;;;;
2024/04/12 07:12:50;;;;;;;11.1;6.5;;;;;;;13.61;71.41;100230;;;;
2024/04/12 07:23:50;;;;;;;13.2;9.5;;;;;;;13.94;69.26;100221.66666667;;;;
2024/04/12 07:34:50;;;;;;;13.2;9.5;;;;;;;14.55;67.59;100216.66666667;;;;
2024/04/12 07:45:50;;;;;;;13.2;9.5;;;;;;;14.98;65.4;100226.66666667;;;;
2024/04/12 07:56:50;;;;;;;13.5;8.8;;;;;;;15.29;65.44;100225;;;;
2024/04/12 08:07:50;;;;;;;13.5;8.8;;;;;;;15.5;62.68;100226.66666667;;;;
2024/04/12 08:18:54;;;;;;;13.5;8.8;;;;;;;16.17;62.24;100213.33333333;;;;
2024/04/12 08:29:50;;;;;;;13.1;8.6;;;;;;;16.4;60.38;100205;;;;
2024/04/12 08:39:53;;;;;;;13.1;8.6;;;;;;;16.78;58.5;100196.66666667;;;;
2024/04/12 08:51:04;;;;;;;13.1;8.6;;;;;;;16.93;57.59;100196.66666667;;;;
2024/04/12 09:00:51;;;;;;;10.6;7.1;;;;;;;17.41;57.2;100193.33333333;;;;
2024/04/12 09:11:54;;;;;;;10.6;7.1;;;;;;;17.53;53.33;100190;;;;
2024/04/12 09:21:58;;;;;;;10.6;7.1;;;;;;;17.59;52.29;100185;;;;
2024/04/12 09:32:51;;;;;;;9.4;6.7;;;;;;;17.85;51.31;100170;;;;
2024/04/12 09:43:50;;;;;;;9.4;6.7;;;;;;;17.91;48.49;100166.66666667;;;;
2024/04/12 10:37:51;;;;;;;8;3.6;;;;;;;19.13;43.19;100110;;;;
2024/04/12 10:47:54;;;;;;;8;3.6;;;;;;;19.25;42.21;100100;;;;
2024/04/12 10:58:52;;;;;;;8.2;3.8;;;;;;;19.64;44.2;100076.66666667;;;;
2024/04/12 11:09:57;;;;;;;8.2;3.8;;;;;;;19.67;44.38;100071.66666667;;;;
2024/04/12 11:40:55;;;;;;;6.7;3.5;;;;;;;20.37;44.75;100033.33333333;;;;
2024/04/12 11:51:55;;;;;;;6.7;3.5;;;;;;;20.54;44.54;100018.33333333;;;;
2024/04/12 12:02:52;;;;;;;8.3;3;;;;;;;20.75;43.34;100015;;;;
2024/04/12 12:13:50;;;;;;;8.3;3;;;;;;;20.76;44.4;100005;;;;
2024/04/12 12:23:50;;;;;;;12.8;4.1;;;;;;;20.68;45.24;99991.666666667;;;;
2024/04/12 12:33:50;;;;;;;12.8;4.1;;;;;;;20.96;44.23;99970;;;;
2024/04/12 12:44:50;;;;;;;12.8;4.1;;;;;;;21.3;46.38;99951.666666667;;;;
2024/04/12 12:54:50;;;;;;;10.1;4.4;;;;;;;21.36;44.08;99945;;;;
2024/04/12 13:05:52;;;;;;;10.1;4.4;;;;;;;21.64;45.36;99938.333333333;;;;
2024/04/12 13:15:54;;;;;;;10.1;4.4;;;;;;;21.59;43.71;99926.666666667;;;;
2024/04/12 13:26:50;;;;;;;8.5;3.6;;;;;;;21.59;45.61;99913.333333333;;;;
2024/04/12 13:36:52;;;;;;;8.5;3.6;;;;;;;21.23;45.96;99906.666666667;;;;
2024/04/12 13:57:52;;;;;;;7.1;4.1;;;;;;;21.99;43.41;99901.666666667;;;;
2024/04/12 14:07:51;;;;;;;7.1;4.1;;;;;;;22.47;42.51;99891.666666667;;;;
2024/04/12 14:18:50;;;;;;;7.1;4.1;;;;;;;22.97;43.58;99871.666666667;;;;
2024/04/12 14:28:51;;;;;;;12.4;4.5;;;;;;;22.84;42.58;99860;;;;
2024/04/12 14:38:50;;;;;;;12.4;4.5;;;;;;;23.18;43.36;99853.333333333;;;;
2024/04/12 14:49:50;;;;;;;12.4;4.5;;;;;;;22.1;44.07;99840;;;;
2024/04/12 14:59:50;;;;;;;9;4.8;;;;;;;22.94;42.75;99821.666666667;;;;
2024/04/12 15:53:52;;;;;;;10.5;4;;;;;;;27.42;34.08;99788.333333333;;;;
2024/04/12 16:14:50;;;;;;;8.9;3.9;;;;;;;27.26;34.26;99785;;;;
2024/04/12 16:25:50;;;;;;;7.7;3.3;;;;;;;24.85;38.01;99780;;;;
2024/04/12 16:35:50;;;;;;;7.7;3.3;;;;;;;22.71;41.9;99771.666666667;;;;
2024/04/12 16:46:51;;;;;;;7.7;3.3;;;;;;;21.19;45.36;99771.666666667;;;;
2024/04/12 16:57:52;;;;;;;8.5;4.3;;;;;;;20.17;47.81;99765;;;;
2024/04/12 17:08:50;;;;;;;8.5;4.3;;;;;;;19.29;50.07;99760;;;;
2024/04/12 17:19:50;;;;;;;8.5;4.3;;;;;;;18.47;51.52;99761.666666667;;;;
2024/04/12 17:29:51;;;;;;;8.8;4.8;;;;;;;17.7;52.59;99760;;;;
2024/04/12 17:39:50;;;;;;;8.8;4.8;;;;;;;16.97;54.97;99763.333333333;;;;
2024/04/12 17:49:50;;;;;;;8.8;4.8;;;;;;;16.36;57.59;99756.666666667;;;;
2024/04/12 18:00:50;;;;;;;14.1;6.7;;;;;;;15.73;59.32;99756.666666667;;;;
2024/04/12 18:11:50;;;;;;;14.1;6.7;;;;;;;15.25;61.17;99761.666666667;;;;
2024/04/12 18:21:50;;;;;;;14.1;6.7;;;;;;;14.75;62.2;99771.666666667;;;;
2024/04/12 18:31:55;;;;;;;12.9;8.1;;;;;;;14.37;65.76;99765;;;;
2024/04/12 18:53:50;;;;;;;12.9;8.1;;;;;;;13.78;67.17;99770;;;;
2024/04/12 19:04:50;;;;;;;11.8;8.6;;;;;;;13.55;68.21;99778.333333333;;;;
2024/04/12 19:15:52;;;;;;;11.8;8.6;;;;;;;13.57;69.65;99778.333333333;;;;
2024/04/12 19:26:52;;;;;;;13.4;8.9;;;;;;;13.8;69.64;99776.666666667;;;;
2024/04/12 19:37:50;;;;;;;13.4;8.9;;;;;;;13.96;69.03;99773.333333333;;;;
2024/04/12 19:47:50;;;;;;;13.4;8.9;;;;;;;13.92;70;99766.666666667;;;;
2024/04/12 19:57:50;;;;;;;13.4;8.6;;;;;;;13.93;69.5;99751.666666667;;;;
2024/04/12 20:08:50;;;;;;;13.4;8.6;;;;;;;14.03;69.71;99741.666666667;;;;
2024/04/12 20:18:51;;;;;;;13.4;8.6;;;;;;;14.04;69.71;99733.333333333;;;;
2024/04/12 20:28:51;;;;;;;13.7;9.3;;;;;;;13.94;69.47;99728.333333333;;;;
2024/04/12 20:39:50;;;;;;;13.7;9.3;;;;;;;13.82;70.38;99725;;;;
2024/04/12 20:50:50;;;;;;;13.7;9.3;;;;;;;13.63;69.6;99726.666666667;;;;
2024/04/12 21:01:50;;;;;;;13.9;9;;;;;;;13.22;70.3;99733.333333333;;;;
2024/04/12 21:11:51;;;;;;;13.9;9;;;;;;;12.78;70.97;99728.333333333;;;;
2024/04/12 21:21:50;;;;;;;13.9;9;;;;;;;12.47;72.69;99733.333333333;;;;
2024/04/12 21:32:54;;;;;;;15;12.2;;;;;;;12.19;73.78;99718.333333333;;;;
2024/04/12 21:43:50;;;;;;;15;12.2;;;;;;;12.45;75.76;99695;;;;
2024/04/12 21:54:50;;;;;;;13.1;8.5;;;;;;;13.05;72.92;99695;;;;
2024/04/12 22:04:51;;;;;;;13.1;8.5;;;;;;;13.12;72.46;99686.666666667;;;;
2024/04/12 22:14:50;;;;;;;13.1;8.5;;;;;;;13.07;72.61;99685;;;;
2024/04/12 22:24:50;;;;;;;10.6;7.3;;;;;;;12.92;72.91;99673.333333333;;;;
2024/04/12 22:35:50;;;;;;;10.6;7.3;;;;;;;12.57;73.4;99673.333333333;;;;
2024/04/12 22:46:50;;;;;;;10.6;7.3;;;;;;;12.09;74.92;99673.333333333;;;;
2024/04/12 22:57:50;;;;;;;16.1;9;;;;;;;11.73;74.79;99675;;;;
2024/04/12 23:08:50;;;;;;;16.1;9;;;;;;;11.33;75.01;99683.333333333;;;;
2024/04/12 23:19:50;;;;;;;16.1;9;;;;;;;11;75.86;99688.333333333;;;;
2024/04/12 23:29:50;;;;;;;15;6.8;;;;;;;10.83;77.75;99683.333333333;;;;
2024/04/12 23:40:51;;;;;;;15;6.8;;;;;;;10.96;79.06;99683.333333333;;;;
2024/04/12 23:50:50;;;;;;;15;6.8;;;;;;;11.07;80.23;99676.666666667;;;;
